sensor_id;sensor_type;location;lat;lon;timestamp;pressure;altitude;pressure_sealevel;temperature;humidity
80781;BME280;70341;56.408;10.874;2023-07-16T00:01:25;100463.46;;;19.71;81.93
80781;BME280;70341;56.408;10.874;2023-07-16T00:03:53;100473.99;;;19.70;81.52
80781;BME280;70341;56.408;10.874;2023-07-16T00:06:23;100467.48;;;19.68;81.48
80781;BME280;70341;56.408;10.874;2023-07-16T00:08:51;100478.79;;;19.66;81.23
80781;BME280;70341;56.408;10.874;2023-07-16T00:11:22;100483.98;;;19.65;81.30
80781;BME280;70341;56.408;10.874;2023-07-16T00:13:50;100491.35;;;19.63;81.32
80781;BME280;70341;56.408;10.874;2023-07-16T00:16:21;100514.89;;;19.60;80.77
80781;BME280;70341;56.408;10.874;2023-07-16T00:18:49;100529.80;;;19.51;80.45
80781;BME280;70341;56.408;10.874;2023-07-16T00:21:20;100513.76;;;19.47;80.54
80781;BME280;70341;56.408;10.874;2023-07-16T00:23:48;100493.29;;;19.41;80.15
80781;BME280;70341;56.408;10.874;2023-07-16T00:26:19;100483.11;;;19.37;80.40
80781;BME280;70341;56.408;10.874;2023-07-16T00:28:47;100492.20;;;19.36;81.12
80781;BME280;70341;56.408;10.874;2023-07-16T00:31:18;100475.63;;;19.34;80.90
80781;BME280;70341;56.408;10.874;2023-07-16T00:33:46;100452.10;;;19.35;81.22
80781;BME280;70341;56.408;10.874;2023-07-16T00:36:16;100445.54;;;19.36;80.68
80781;BME280;70341;56.408;10.874;2023-07-16T00:38:45;100452.25;;;19.38;81.25
80781;BME280;70341;56.408;10.874;2023-07-16T00:41:16;100440.38;;;19.38;80.34
80781;BME280;70341;56.408;10.874;2023-07-16T00:43:44;100442.48;;;19.41;80.14
80781;BME280;70341;56.408;10.874;2023-07-16T00:46:15;100446.96;;;19.46;80.84
80781;BME280;70341;56.408;10.874;2023-07-16T00:48:44;100451.58;;;19.49;80.84
80781;BME280;70341;56.408;10.874;2023-07-16T00:51:13;100454.11;;;19.49;80.91
80781;BME280;70341;56.408;10.874;2023-07-16T00:53:42;100464.02;;;19.49;80.98
80781;BME280;70341;56.408;10.874;2023-07-16T00:56:16;100455.24;;;19.46;80.78
80781;BME280;70341;56.408;10.874;2023-07-16T00:58:45;100466.33;;;19.44;80.75
80781;BME280;70341;56.408;10.874;2023-07-16T01:01:15;100476.48;;;19.39;80.63
80781;BME280;70341;56.408;10.874;2023-07-16T01:03:43;100468.63;;;19.34;80.94
80781;BME280;70341;56.408;10.874;2023-07-16T01:06:26;100467.08;;;19.31;80.77
80781;BME280;70341;56.408;10.874;2023-07-16T01:09:06;100455.86;;;19.30;81.14
80781;BME280;70341;56.408;10.874;2023-07-16T01:11:39;100433.34;;;19.27;80.54
80781;BME280;70341;56.408;10.874;2023-07-16T01:14:08;100441.07;;;19.28;80.76
80781;BME280;70341;56.408;10.874;2023-07-16T01:16:41;100460.87;;;19.28;81.01
80781;BME280;70341;56.408;10.874;2023-07-16T01:19:10;100495.67;;;19.27;81.04
80781;BME280;70341;56.408;10.874;2023-07-16T01:24:53;100536.80;;;19.20;80.81
80781;BME280;70341;56.408;10.874;2023-07-16T01:28:16;100543.72;;;19.14;80.58
80781;BME280;70341;56.408;10.874;2023-07-16T01:30:52;100550.15;;;19.06;80.71
80781;BME280;70341;56.408;10.874;2023-07-16T01:33:23;100566.41;;;19.00;80.76
80781;BME280;70341;56.408;10.874;2023-07-16T01:35:54;100560.14;;;18.98;81.15
80781;BME280;70341;56.408;10.874;2023-07-16T01:38:23;100555.94;;;18.96;81.10
80781;BME280;70341;56.408;10.874;2023-07-16T01:40:52;100553.85;;;18.91;81.13
80781;BME280;70341;56.408;10.874;2023-07-16T01:43:21;100553.45;;;18.87;81.32
80781;BME280;70341;56.408;10.874;2023-07-16T01:45:51;100549.91;;;18.86;81.35
80781;BME280;70341;56.408;10.874;2023-07-16T01:48:36;100546.09;;;18.84;81.15
80781;BME280;70341;56.408;10.874;2023-07-16T01:51:06;100540.84;;;18.80;80.91
80781;BME280;70341;56.408;10.874;2023-07-16T01:53:34;100540.76;;;18.76;80.92
80781;BME280;70341;56.408;10.874;2023-07-16T01:56:04;100524.66;;;18.70;80.80
80781;BME280;70341;56.408;10.874;2023-07-16T01:58:32;100513.55;;;18.68;81.27
80781;BME280;70341;56.408;10.874;2023-07-16T02:01:03;100514.60;;;18.65;80.71
80781;BME280;70341;56.408;10.874;2023-07-16T02:03:31;100520.11;;;18.61;80.97
80781;BME280;70341;56.408;10.874;2023-07-16T02:06:00;100525.92;;;18.56;80.80
80781;BME280;70341;56.408;10.874;2023-07-16T02:08:29;100534.63;;;18.53;80.85
80781;BME280;70341;56.408;10.874;2023-07-16T02:10:58;100546.42;;;18.49;80.86
80781;BME280;70341;56.408;10.874;2023-07-16T02:13:27;100545.67;;;18.47;80.93
80781;BME280;70341;56.408;10.874;2023-07-16T02:15:56;100551.13;;;18.46;81.00
80781;BME280;70341;56.408;10.874;2023-07-16T02:18:25;100555.08;;;18.44;80.94
80781;BME280;70341;56.408;10.874;2023-07-16T02:20:55;100551.16;;;18.41;80.75
80781;BME280;70341;56.408;10.874;2023-07-16T02:23:24;100535.70;;;18.39;81.12
80781;BME280;70341;56.408;10.874;2023-07-16T02:25:54;100523.60;;;18.37;81.13
80781;BME280;70341;56.408;10.874;2023-07-16T02:28:22;100515.30;;;18.35;81.08
80781;BME280;70341;56.408;10.874;2023-07-16T02:30:53;100526.89;;;18.34;81.19
80781;BME280;70341;56.408;10.874;2023-07-16T02:33:21;100529.56;;;18.37;81.32
80781;BME280;70341;56.408;10.874;2023-07-16T02:35:52;100535.45;;;18.39;81.40
80781;BME280;70341;56.408;10.874;2023-07-16T02:38:20;100531.21;;;18.41;81.06
80781;BME280;70341;56.408;10.874;2023-07-16T02:40:51;100520.50;;;18.40;80.96
80781;BME280;70341;56.408;10.874;2023-07-16T02:43:19;100528.77;;;18.42;81.16
80781;BME280;70341;56.408;10.874;2023-07-16T02:45:49;100515.32;;;18.44;80.88
80781;BME280;70341;56.408;10.874;2023-07-16T02:48:17;100508.35;;;18.43;80.67
80781;BME280;70341;56.408;10.874;2023-07-16T02:50:47;100518.09;;;18.43;80.75
80781;BME280;70341;56.408;10.874;2023-07-16T02:53:15;100524.84;;;18.42;81.00
80781;BME280;70341;56.408;10.874;2023-07-16T02:55:46;100532.79;;;18.42;80.79
80781;BME280;70341;56.408;10.874;2023-07-16T02:58:14;100531.60;;;18.40;80.81
80781;BME280;70341;56.408;10.874;2023-07-16T03:00:44;100538.77;;;18.41;80.88
80781;BME280;70341;56.408;10.874;2023-07-16T03:03:13;100550.30;;;18.41;81.02
80781;BME280;70341;56.408;10.874;2023-07-16T03:05:43;100549.33;;;18.39;80.87
80781;BME280;70341;56.408;10.874;2023-07-16T03:08:11;100551.65;;;18.39;80.93
80781;BME280;70341;56.408;10.874;2023-07-16T03:10:41;100549.42;;;18.36;80.85
80781;BME280;70341;56.408;10.874;2023-07-16T03:13:10;100534.59;;;18.34;81.17
80781;BME280;70341;56.408;10.874;2023-07-16T03:15:40;100539.90;;;18.36;80.90
80781;BME280;70341;56.408;10.874;2023-07-16T03:18:08;100541.30;;;18.33;80.90
80781;BME280;70341;56.408;10.874;2023-07-16T03:20:38;100535.12;;;18.32;80.93
80781;BME280;70341;56.408;10.874;2023-07-16T03:23:06;100526.61;;;18.33;80.89
80781;BME280;70341;56.408;10.874;2023-07-16T03:25:36;100544.93;;;18.31;80.53
80781;BME280;70341;56.408;10.874;2023-07-16T03:28:04;100571.05;;;18.31;80.82
80781;BME280;70341;56.408;10.874;2023-07-16T03:30:35;100550.66;;;18.26;80.75
80781;BME280;70341;56.408;10.874;2023-07-16T03:33:04;100536.50;;;18.26;80.88
80781;BME280;70341;56.408;10.874;2023-07-16T03:35:34;100555.27;;;18.27;81.01
80781;BME280;70341;56.408;10.874;2023-07-16T03:38:02;100566.00;;;18.28;80.99
80781;BME280;70341;56.408;10.874;2023-07-16T03:40:33;100565.31;;;18.28;80.86
80781;BME280;70341;56.408;10.874;2023-07-16T03:43:01;100569.23;;;18.28;80.87
80781;BME280;70341;56.408;10.874;2023-07-16T03:45:31;100569.03;;;18.26;80.88
80781;BME280;70341;56.408;10.874;2023-07-16T03:47:59;100574.03;;;18.24;80.76
80781;BME280;70341;56.408;10.874;2023-07-16T03:50:28;100585.71;;;18.24;80.80
80781;BME280;70341;56.408;10.874;2023-07-16T03:52:57;100593.59;;;18.25;80.64
80781;BME280;70341;56.408;10.874;2023-07-16T03:55:26;100590.07;;;18.24;80.45
80781;BME280;70341;56.408;10.874;2023-07-16T03:57:55;100578.29;;;18.22;80.41
80781;BME280;70341;56.408;10.874;2023-07-16T04:00:24;100565.60;;;18.24;80.25
80781;BME280;70341;56.408;10.874;2023-07-16T04:02:53;100552.77;;;18.25;79.66
80781;BME280;70341;56.408;10.874;2023-07-16T04:05:23;100529.38;;;18.22;79.24
80781;BME280;70341;56.408;10.874;2023-07-16T04:07:52;100522.63;;;18.19;78.77
80781;BME280;70341;56.408;10.874;2023-07-16T04:10:21;100517.29;;;18.18;78.70
80781;BME280;70341;56.408;10.874;2023-07-16T04:12:50;100517.20;;;18.17;78.77
80781;BME280;70341;56.408;10.874;2023-07-16T04:15:19;100514.33;;;18.15;78.41
80781;BME280;70341;56.408;10.874;2023-07-16T04:17:48;100517.75;;;18.14;78.00
80781;BME280;70341;56.408;10.874;2023-07-16T04:20:18;100510.11;;;18.11;77.52
80781;BME280;70341;56.408;10.874;2023-07-16T04:22:47;100503.11;;;18.06;77.44
80781;BME280;70341;56.408;10.874;2023-07-16T04:25:17;100496.30;;;18.03;77.40
80781;BME280;70341;56.408;10.874;2023-07-16T04:27:46;100498.54;;;18.00;77.45
80781;BME280;70341;56.408;10.874;2023-07-16T04:30:16;100515.90;;;18.01;77.44
80781;BME280;70341;56.408;10.874;2023-07-16T04:32:44;100521.94;;;18.02;77.62
80781;BME280;70341;56.408;10.874;2023-07-16T04:35:15;100525.93;;;18.04;77.53
80781;BME280;70341;56.408;10.874;2023-07-16T04:37:43;100531.04;;;18.07;77.24
80781;BME280;70341;56.408;10.874;2023-07-16T04:40:14;100543.35;;;18.11;77.33
80781;BME280;70341;56.408;10.874;2023-07-16T04:42:42;100554.04;;;18.13;76.71
80781;BME280;70341;56.408;10.874;2023-07-16T04:45:13;100561.46;;;18.14;76.63
80781;BME280;70341;56.408;10.874;2023-07-16T04:47:41;100556.48;;;18.18;76.64
80781;BME280;70341;56.408;10.874;2023-07-16T04:50:12;100561.23;;;18.22;76.70
80781;BME280;70341;56.408;10.874;2023-07-16T04:52:40;100560.32;;;18.25;76.26
80781;BME280;70341;56.408;10.874;2023-07-16T04:55:10;100575.61;;;18.27;76.27
80781;BME280;70341;56.408;10.874;2023-07-16T04:57:38;100573.50;;;18.29;76.14
80781;BME280;70341;56.408;10.874;2023-07-16T05:00:09;100571.52;;;18.31;75.91
80781;BME280;70341;56.408;10.874;2023-07-16T05:02:37;100581.67;;;18.35;75.99
80781;BME280;70341;56.408;10.874;2023-07-16T05:05:08;100584.95;;;18.40;75.72
80781;BME280;70341;56.408;10.874;2023-07-16T05:07:36;100584.29;;;18.45;75.54
80781;BME280;70341;56.408;10.874;2023-07-16T05:10:07;100579.19;;;18.51;75.51
80781;BME280;70341;56.408;10.874;2023-07-16T05:12:36;100587.61;;;18.52;75.16
80781;BME280;70341;56.408;10.874;2023-07-16T05:15:06;100588.73;;;18.49;75.47
80781;BME280;70341;56.408;10.874;2023-07-16T05:17:35;100587.88;;;18.51;75.37
80781;BME280;70341;56.408;10.874;2023-07-16T05:20:05;100589.35;;;18.52;75.32
80781;BME280;70341;56.408;10.874;2023-07-16T05:22:33;100588.54;;;18.51;75.23
80781;BME280;70341;56.408;10.874;2023-07-16T05:25:04;100592.08;;;18.47;74.92
80781;BME280;70341;56.408;10.874;2023-07-16T05:27:32;100596.45;;;18.37;74.56
80781;BME280;70341;56.408;10.874;2023-07-16T05:30:02;100594.58;;;18.26;74.27
80781;BME280;70341;56.408;10.874;2023-07-16T05:32:31;100598.62;;;18.15;74.16
80781;BME280;70341;56.408;10.874;2023-07-16T05:35:00;100605.19;;;18.07;74.16
80781;BME280;70341;56.408;10.874;2023-07-16T05:37:31;100607.71;;;17.99;74.10
80781;BME280;70341;56.408;10.874;2023-07-16T05:40:00;100613.70;;;17.93;74.34
80781;BME280;70341;56.408;10.874;2023-07-16T05:42:29;100606.02;;;17.88;73.69
80781;BME280;70341;56.408;10.874;2023-07-16T05:44:59;100607.55;;;17.89;73.50
80781;BME280;70341;56.408;10.874;2023-07-16T05:47:27;100601.85;;;18.01;72.94
80781;BME280;70341;56.408;10.874;2023-07-16T05:49:57;100599.27;;;18.14;72.82
80781;BME280;70341;56.408;10.874;2023-07-16T05:52:26;100599.16;;;18.30;72.72
80781;BME280;70341;56.408;10.874;2023-07-16T05:54:56;100599.41;;;18.43;71.94
80781;BME280;70341;56.408;10.874;2023-07-16T05:57:25;100602.81;;;18.58;71.81
80781;BME280;70341;56.408;10.874;2023-07-16T05:59:55;100606.98;;;18.70;70.86
80781;BME280;70341;56.408;10.874;2023-07-16T06:02:24;100601.98;;;18.78;70.73
80781;BME280;70341;56.408;10.874;2023-07-16T06:04:53;100600.33;;;18.88;70.27
80781;BME280;70341;56.408;10.874;2023-07-16T06:07:22;100598.30;;;18.96;69.51
80781;BME280;70341;56.408;10.874;2023-07-16T06:09:52;100604.91;;;19.08;69.13
80781;BME280;70341;56.408;10.874;2023-07-16T06:12:20;100611.67;;;19.16;68.53
80781;BME280;70341;56.408;10.874;2023-07-16T06:14:51;100604.42;;;19.21;68.23
80781;BME280;70341;56.408;10.874;2023-07-16T06:17:19;100606.46;;;19.28;67.14
80781;BME280;70341;56.408;10.874;2023-07-16T06:19:49;100606.47;;;19.32;67.11
80781;BME280;70341;56.408;10.874;2023-07-16T06:22:17;100599.59;;;19.39;67.11
80781;BME280;70341;56.408;10.874;2023-07-16T06:24:47;100599.08;;;19.48;66.52
80781;BME280;70341;56.408;10.874;2023-07-16T06:27:15;100589.21;;;19.54;65.53
80781;BME280;70341;56.408;10.874;2023-07-16T06:29:46;100599.64;;;19.61;65.89
80781;BME280;70341;56.408;10.874;2023-07-16T06:32:14;100603.59;;;19.66;64.88
80781;BME280;70341;56.408;10.874;2023-07-16T06:34:45;100617.17;;;19.70;64.88
80781;BME280;70341;56.408;10.874;2023-07-16T06:37:13;100624.23;;;19.71;64.88
80781;BME280;70341;56.408;10.874;2023-07-16T06:39:43;100633.64;;;19.67;64.13
80781;BME280;70341;56.408;10.874;2023-07-16T06:42:12;100633.88;;;19.61;63.55
80781;BME280;70341;56.408;10.874;2023-07-16T06:44:42;100645.17;;;19.58;63.20
80781;BME280;70341;56.408;10.874;2023-07-16T06:47:11;100637.71;;;19.51;63.56
80781;BME280;70341;56.408;10.874;2023-07-16T06:49:41;100631.68;;;19.46;63.81
80781;BME280;70341;56.408;10.874;2023-07-16T06:52:20;100637.42;;;19.37;63.55
80781;BME280;70341;56.408;10.874;2023-07-16T06:54:49;100637.42;;;19.37;63.47
80781;BME280;70341;56.408;10.874;2023-07-16T06:57:18;100631.01;;;19.43;63.02
80781;BME280;70341;56.408;10.874;2023-07-16T06:59:49;100632.44;;;19.54;63.06
80781;BME280;70341;56.408;10.874;2023-07-16T07:02:18;100633.05;;;19.67;62.90
80781;BME280;70341;56.408;10.874;2023-07-16T07:04:50;100636.26;;;19.79;61.93
80781;BME280;70341;56.408;10.874;2023-07-16T07:07:18;100635.49;;;19.84;60.73
80781;BME280;70341;56.408;10.874;2023-07-16T07:09:48;100634.39;;;19.89;61.39
80781;BME280;70341;56.408;10.874;2023-07-16T07:12:16;100632.57;;;20.05;61.55
80781;BME280;70341;56.408;10.874;2023-07-16T07:14:47;100623.51;;;20.25;61.16
80781;BME280;70341;56.408;10.874;2023-07-16T07:17:16;100621.96;;;20.46;60.70
80781;BME280;70341;56.408;10.874;2023-07-16T07:19:45;100626.31;;;20.59;58.07
80781;BME280;70341;56.408;10.874;2023-07-16T07:22:14;100625.21;;;20.64;57.68
80781;BME280;70341;56.408;10.874;2023-07-16T07:24:44;100626.23;;;20.73;58.59
80781;BME280;70341;56.408;10.874;2023-07-16T07:27:12;100621.23;;;20.83;57.38
80781;BME280;70341;56.408;10.874;2023-07-16T07:29:43;100615.71;;;20.88;57.40
80781;BME280;70341;56.408;10.874;2023-07-16T07:32:11;100631.16;;;20.98;57.75
80781;BME280;70341;56.408;10.874;2023-07-16T07:34:42;100635.13;;;21.02;56.52
80781;BME280;70341;56.408;10.874;2023-07-16T07:37:10;100632.98;;;21.00;56.91
80781;BME280;70341;56.408;10.874;2023-07-16T07:39:41;100624.67;;;21.10;56.62
80781;BME280;70341;56.408;10.874;2023-07-16T07:42:09;100628.08;;;21.31;57.43
80781;BME280;70341;56.408;10.874;2023-07-16T07:44:39;100630.77;;;21.48;57.44
80781;BME280;70341;56.408;10.874;2023-07-16T07:47:08;100629.80;;;21.60;57.25
80781;BME280;70341;56.408;10.874;2023-07-16T07:49:38;100625.61;;;21.66;56.86
80781;BME280;70341;56.408;10.874;2023-07-16T07:52:07;100640.05;;;21.62;56.67
80781;BME280;70341;56.408;10.874;2023-07-16T07:54:37;100629.14;;;21.69;56.31
80781;BME280;70341;56.408;10.874;2023-07-16T07:57:06;100634.95;;;21.81;55.43
80781;BME280;70341;56.408;10.874;2023-07-16T07:59:36;100637.64;;;21.87;54.00
80781;BME280;70341;56.408;10.874;2023-07-16T08:02:05;100630.98;;;21.98;53.71
80781;BME280;70341;56.408;10.874;2023-07-16T08:04:35;100652.69;;;22.09;52.47
80781;BME280;70341;56.408;10.874;2023-07-16T08:07:03;100641.38;;;22.08;52.06
80781;BME280;70341;56.408;10.874;2023-07-16T08:09:33;100642.63;;;22.06;52.95
80781;BME280;70341;56.408;10.874;2023-07-16T08:12:02;100640.38;;;22.25;53.03
80781;BME280;70341;56.408;10.874;2023-07-16T08:14:31;100642.08;;;22.38;51.71
80781;BME280;70341;56.408;10.874;2023-07-16T08:16:59;100632.34;;;22.48;51.19
80781;BME280;70341;56.408;10.874;2023-07-16T08:19:30;100650.42;;;22.60;50.80
80781;BME280;70341;56.408;10.874;2023-07-16T08:21:58;100649.52;;;22.42;51.18
80781;BME280;70341;56.408;10.874;2023-07-16T08:24:28;100637.14;;;22.25;51.27
80781;BME280;70341;56.408;10.874;2023-07-16T08:26:57;100639.44;;;22.16;51.89
80781;BME280;70341;56.408;10.874;2023-07-16T08:29:27;100642.40;;;21.97;51.79
80781;BME280;70341;56.408;10.874;2023-07-16T08:31:55;100632.52;;;21.73;53.18
80781;BME280;70341;56.408;10.874;2023-07-16T08:34:26;100636.97;;;21.64;54.00
80781;BME280;70341;56.408;10.874;2023-07-16T08:36:54;100637.77;;;21.78;53.02
80781;BME280;70341;56.408;10.874;2023-07-16T08:39:25;100642.81;;;21.94;52.44
80781;BME280;70341;56.408;10.874;2023-07-16T08:41:54;100622.48;;;22.21;51.86
80781;BME280;70341;56.408;10.874;2023-07-16T08:44:24;100628.52;;;22.34;51.66
80781;BME280;70341;56.408;10.874;2023-07-16T08:46:52;100623.23;;;22.52;51.49
80781;BME280;70341;56.408;10.874;2023-07-16T08:49:23;100627.75;;;22.62;51.32
80781;BME280;70341;56.408;10.874;2023-07-16T08:51:51;100633.13;;;22.94;50.41
80781;BME280;70341;56.408;10.874;2023-07-16T08:54:23;100654.07;;;23.16;48.41
80781;BME280;70341;56.408;10.874;2023-07-16T08:56:52;100635.52;;;23.02;49.27
80781;BME280;70341;56.408;10.874;2023-07-16T08:59:21;100635.30;;;22.83;49.70
80781;BME280;70341;56.408;10.874;2023-07-16T09:01:50;100635.42;;;22.87;49.38
80781;BME280;70341;56.408;10.874;2023-07-16T09:04:21;100628.02;;;23.06;49.33
80781;BME280;70341;56.408;10.874;2023-07-16T09:06:49;100639.56;;;22.87;49.68
80781;BME280;70341;56.408;10.874;2023-07-16T09:09:23;100629.64;;;22.71;49.57
80781;BME280;70341;56.408;10.874;2023-07-16T09:11:52;100649.43;;;22.65;50.02
80781;BME280;70341;56.408;10.874;2023-07-16T09:14:21;100655.91;;;22.61;49.58
80781;BME280;70341;56.408;10.874;2023-07-16T09:16:53;100652.54;;;22.53;50.16
80781;BME280;70341;56.408;10.874;2023-07-16T09:19:25;100651.11;;;22.33;50.70
80781;BME280;70341;56.408;10.874;2023-07-16T09:21:53;100654.99;;;22.04;52.09
80781;BME280;70341;56.408;10.874;2023-07-16T09:24:23;100675.06;;;21.67;52.86
80781;BME280;70341;56.408;10.874;2023-07-16T09:26:53;100668.31;;;21.36;55.59
80781;BME280;70341;56.408;10.874;2023-07-16T09:29:25;100685.16;;;21.12;58.65
80781;BME280;70341;56.408;10.874;2023-07-16T09:32:00;100679.29;;;20.92;59.72
80781;BME280;70341;56.408;10.874;2023-07-16T09:34:31;100675.64;;;20.95;59.30
80781;BME280;70341;56.408;10.874;2023-07-16T09:37:01;100670.64;;;21.43;58.73
80781;BME280;70341;56.408;10.874;2023-07-16T09:39:32;100680.55;;;22.33;55.48
80781;BME280;70341;56.408;10.874;2023-07-16T09:42:01;100671.09;;;23.34;52.31
80781;BME280;70341;56.408;10.874;2023-07-16T09:44:31;100675.88;;;23.86;50.19
80781;BME280;70341;56.408;10.874;2023-07-16T09:47:00;100683.86;;;24.76;46.72
80781;BME280;70341;56.408;10.874;2023-07-16T09:49:30;100679.07;;;25.24;45.47
80781;BME280;70341;56.408;10.874;2023-07-16T09:52:01;100686.23;;;25.19;44.58
80781;BME280;70341;56.408;10.874;2023-07-16T09:54:37;100693.20;;;24.95;45.39
80781;BME280;70341;56.408;10.874;2023-07-16T09:57:08;100679.36;;;25.87;44.13
80781;BME280;70341;56.408;10.874;2023-07-16T09:59:37;100679.50;;;27.09;41.72
80781;BME280;70341;56.408;10.874;2023-07-16T10:02:07;100686.89;;;28.04;40.02
80781;BME280;70341;56.408;10.874;2023-07-16T10:04:39;100687.19;;;28.87;37.10
80781;BME280;70341;56.408;10.874;2023-07-16T10:07:22;100688.66;;;29.11;36.14
80781;BME280;70341;56.408;10.874;2023-07-16T10:09:55;100682.46;;;28.79;36.77
80781;BME280;70341;56.408;10.874;2023-07-16T10:12:26;100694.78;;;29.27;35.30
80781;BME280;70341;56.408;10.874;2023-07-16T10:14:56;100683.05;;;29.37;34.78
80781;BME280;70341;56.408;10.874;2023-07-16T10:17:26;100692.67;;;29.56;34.34
80781;BME280;70341;56.408;10.874;2023-07-16T10:20:06;100711.95;;;30.10;33.31
80781;BME280;70341;56.408;10.874;2023-07-16T10:22:41;100704.45;;;29.58;33.98
80781;BME280;70341;56.408;10.874;2023-07-16T10:27:50;100715.30;;;29.47;34.62
80781;BME280;70341;56.408;10.874;2023-07-16T10:30:19;100721.13;;;28.28;36.76
80781;BME280;70341;56.408;10.874;2023-07-16T10:32:51;100752.30;;;26.65;39.39
80781;BME280;70341;56.408;10.874;2023-07-16T10:35:20;100761.27;;;25.23;44.67
80781;BME280;70341;56.408;10.874;2023-07-16T10:37:49;100768.33;;;24.31;48.59
80781;BME280;70341;56.408;10.874;2023-07-16T10:40:17;100765.85;;;23.68;49.88
80781;BME280;70341;56.408;10.874;2023-07-16T10:42:48;100765.19;;;23.58;50.27
80781;BME280;70341;56.408;10.874;2023-07-16T10:45:16;100761.69;;;23.17;51.33
80781;BME280;70341;56.408;10.874;2023-07-16T10:47:53;100765.30;;;23.40;51.17
80781;BME280;70341;56.408;10.874;2023-07-16T10:50:23;100775.14;;;24.69;48.36
80781;BME280;70341;56.408;10.874;2023-07-16T10:52:53;100762.38;;;25.07;47.51
80781;BME280;70341;56.408;10.874;2023-07-16T10:55:27;100762.45;;;24.83;47.99
80781;BME280;70341;56.408;10.874;2023-07-16T10:57:56;100752.42;;;24.28;49.36
80781;BME280;70341;56.408;10.874;2023-07-16T11:00:26;100752.72;;;23.91;50.12
80781;BME280;70341;56.408;10.874;2023-07-16T11:02:54;100753.45;;;23.76;50.62
80781;BME280;70341;56.408;10.874;2023-07-16T11:05:24;100763.65;;;23.94;49.71
80781;BME280;70341;56.408;10.874;2023-07-16T11:07:52;100757.42;;;26.01;45.29
80781;BME280;70341;56.408;10.874;2023-07-16T11:10:27;100756.48;;;27.75;42.02
80781;BME280;70341;56.408;10.874;2023-07-16T11:12:56;100756.52;;;27.58;41.28
80781;BME280;70341;56.408;10.874;2023-07-16T11:15:35;100760.45;;;27.21;41.63
80781;BME280;70341;56.408;10.874;2023-07-16T11:18:04;100766.58;;;26.75;42.31
80781;BME280;70341;56.408;10.874;2023-07-16T11:20:33;100778.79;;;26.25;43.42
80781;BME280;70341;56.408;10.874;2023-07-16T11:23:04;100781.98;;;26.07;44.16
80781;BME280;70341;56.408;10.874;2023-07-16T11:25:32;100789.02;;;25.74;44.46
80781;BME280;70341;56.408;10.874;2023-07-16T11:28:01;100793.98;;;25.24;45.76
80781;BME280;70341;56.408;10.874;2023-07-16T11:30:30;100793.99;;;24.75;47.45
80781;BME280;70341;56.408;10.874;2023-07-16T11:33:00;100805.08;;;24.64;47.86
80781;BME280;70341;56.408;10.874;2023-07-16T11:35:29;100810.41;;;24.79;47.50
80781;BME280;70341;56.408;10.874;2023-07-16T11:37:59;100801.14;;;25.04;47.48
80781;BME280;70341;56.408;10.874;2023-07-16T11:40:27;100800.08;;;25.36;47.42
80781;BME280;70341;56.408;10.874;2023-07-16T11:42:57;100802.17;;;27.50;43.23
80781;BME280;70341;56.408;10.874;2023-07-16T11:45:25;100804.95;;;29.11;39.88
80781;BME280;70341;56.408;10.874;2023-07-16T11:47:55;100812.85;;;29.22;38.63
80781;BME280;70341;56.408;10.874;2023-07-16T11:50:25;100810.15;;;29.72;37.93
80781;BME280;70341;56.408;10.874;2023-07-16T11:53:00;100812.32;;;29.68;37.93
80781;BME280;70341;56.408;10.874;2023-07-16T11:55:31;100822.73;;;28.48;39.46
80781;BME280;70341;56.408;10.874;2023-07-16T11:57:59;100824.16;;;28.32;40.36
80781;BME280;70341;56.408;10.874;2023-07-16T12:00:29;100816.09;;;27.38;41.89
80781;BME280;70341;56.408;10.874;2023-07-16T12:02:58;100829.88;;;26.35;43.49
80781;BME280;70341;56.408;10.874;2023-07-16T12:05:28;100835.86;;;25.64;44.99
80781;BME280;70341;56.408;10.874;2023-07-16T12:08:17;100845.16;;;24.98;46.22
80781;BME280;70341;56.408;10.874;2023-07-16T12:10:45;100845.88;;;24.19;52.27
80781;BME280;70341;56.408;10.874;2023-07-16T12:13:15;100854.38;;;23.38;55.66
80781;BME280;70341;56.408;10.874;2023-07-16T12:15:44;100857.86;;;22.57;55.68
80781;BME280;70341;56.408;10.874;2023-07-16T12:18:13;100856.96;;;21.89;56.83
80781;BME280;70341;56.408;10.874;2023-07-16T12:20:41;100864.38;;;21.26;58.31
80781;BME280;70341;56.408;10.874;2023-07-16T12:23:11;100877.99;;;20.79;60.25
80781;BME280;70341;56.408;10.874;2023-07-16T12:25:39;100878.39;;;20.28;63.55
80781;BME280;70341;56.408;10.874;2023-07-16T12:28:10;100872.59;;;19.92;66.33
80781;BME280;70341;56.408;10.874;2023-07-16T12:30:38;100867.14;;;19.57;66.25
80781;BME280;70341;56.408;10.874;2023-07-16T12:33:09;100859.06;;;19.49;66.38
80781;BME280;70341;56.408;10.874;2023-07-16T12:35:37;100862.16;;;19.66;65.92
80781;BME280;70341;56.408;10.874;2023-07-16T12:38:08;100862.70;;;20.12;64.57
80781;BME280;70341;56.408;10.874;2023-07-16T12:40:36;100860.99;;;21.03;61.84
80781;BME280;70341;56.408;10.874;2023-07-16T12:43:07;100866.48;;;23.03;55.63
80781;BME280;70341;56.408;10.874;2023-07-16T12:45:35;100848.45;;;24.97;51.42
80781;BME280;70341;56.408;10.874;2023-07-16T12:48:05;100848.90;;;26.94;45.74
80781;BME280;70341;56.408;10.874;2023-07-16T12:50:33;100847.34;;;28.15;42.15
80781;BME280;70341;56.408;10.874;2023-07-16T12:53:04;100851.84;;;29.09;40.16
80781;BME280;70341;56.408;10.874;2023-07-16T12:55:32;100849.48;;;30.38;37.70
80781;BME280;70341;56.408;10.874;2023-07-16T12:58:02;100851.08;;;30.82;35.84
80781;BME280;70341;56.408;10.874;2023-07-16T13:00:30;100848.88;;;31.53;35.50